Time;durP1;ratioP1;P1;durP2;ratioP2;P2;SDS_P1;SDS_P2;PMS_P1;PMS_P2;Temp;Humidity;BMP_temperature;BMP_pressure;BME280_temperature;BME280_humidity;BME280_pressure;Samples;Min_cycle;Max_cycle;Signal;HPM_P1;HPM_P2
2024/01/27 00:01:32;;;;;;;15.13;5.45;;;0.60;99.90;;;;;;4927407;29;20689;-47
2024/01/27 00:03:58;;;;;;;13.85;6.43;;;0.60;99.90;;;;;;4931316;29;20038;-45
2024/01/27 00:06:24;;;;;;;14.18;4.75;;;0.70;99.90;;;;;;4928207;29;20032;-59
2024/01/27 00:08:50;;;;;;;11.60;5.47;;;0.80;99.90;;;;;;4928770;29;20395;-51
2024/01/27 00:11:15;;;;;;;15.18;5.13;;;0.80;99.90;;;;;;4924827;29;20031;-54
2024/01/27 00:13:41;;;;;;;11.27;4.50;;;0.80;99.90;;;;;;4916750;29;20028;-46
2024/01/27 00:16:07;;;;;;;10.70;5.13;;;0.70;99.90;;;;;;4916646;29;20035;-48
2024/01/27 00:18:36;;;;;;;13.00;5.10;;;0.70;99.90;;;;;;4916684;29;20048;-52
2024/01/27 00:21:02;;;;;;;12.00;4.97;;;0.50;99.90;;;;;;4916799;29;20044;-48
2024/01/27 00:23:27;;;;;;;20.10;9.13;;;0.50;99.90;;;;;;4915710;29;20039;-48
2024/01/27 00:25:53;;;;;;;18.88;8.75;;;0.40;99.90;;;;;;4916222;29;20498;-54
2024/01/27 00:28:18;;;;;;;15.07;6.20;;;0.40;99.90;;;;;;4916522;29;20028;-49
2024/01/27 00:30:44;;;;;;;13.30;5.85;;;0.50;99.90;;;;;;4916647;29;20039;-47
2024/01/27 00:33:10;;;;;;;14.27;5.88;;;0.40;99.90;;;;;;4916552;29;20062;-50
2024/01/27 00:35:35;;;;;;;15.60;5.70;;;0.40;99.90;;;;;;4916583;29;20035;-47
2024/01/27 00:38:01;;;;;;;16.90;5.82;;;0.40;99.90;;;;;;4916474;29;20051;-53
2024/01/27 00:40:27;;;;;;;14.55;5.75;;;0.30;99.90;;;;;;4916470;29;20028;-48
2024/01/27 00:42:54;;;;;;;12.57;5.18;;;0.30;99.90;;;;;;4916299;29;20516;-51
2024/01/27 00:45:20;;;;;;;11.05;5.20;;;0.20;99.90;;;;;;4916093;29;20036;-47
2024/01/27 00:47:46;;;;;;;18.45;5.65;;;0.20;99.90;;;;;;4916365;29;20079;-63
2024/01/27 00:50:11;;;;;;;16.65;6.43;;;0.20;99.90;;;;;;4916213;29;20114;-47
2024/01/27 00:52:37;;;;;;;10.90;5.82;;;0.40;99.90;;;;;;4916256;29;20048;-52
2024/01/27 00:55:03;;;;;;;10.68;6.40;;;0.50;99.90;;;;;;4916144;29;20040;-45
2024/01/27 00:57:28;;;;;;;11.98;5.13;;;0.50;99.90;;;;;;4915899;29;20024;-48
2024/01/27 00:59:54;;;;;;;16.05;6.03;;;0.50;99.90;;;;;;4916049;29;20369;-46
2024/01/27 01:02:20;;;;;;;10.43;5.82;;;0.50;99.90;;;;;;4916067;29;20039;-51
2024/01/27 01:04:45;;;;;;;11.57;5.32;;;0.40;99.90;;;;;;4916083;29;20048;-53
2024/01/27 01:07:11;;;;;;;12.07;5.82;;;0.30;99.90;;;;;;4915882;29;20024;-52
2024/01/27 01:09:36;;;;;;;14.38;5.63;;;0.20;99.90;;;;;;4915830;29;20372;-58
2024/01/27 01:12:02;;;;;;;10.60;5.15;;;0.20;99.90;;;;;;4915402;29;20107;-47
2024/01/27 01:14:28;;;;;;;10.77;5.00;;;0.20;99.90;;;;;;4915577;29;20377;-53
2024/01/27 01:16:54;;;;;;;10.73;4.57;;;0.00;99.90;;;;;;4915723;29;20032;-49
2024/01/27 01:19:19;;;;;;;9.07;3.83;;;0.00;99.90;;;;;;4915398;29;20016;-49
2024/01/27 01:21:45;;;;;;;14.98;5.18;;;0.00;99.90;;;;;;4915515;29;20032;-50
2024/01/27 01:24:10;;;;;;;10.10;5.35;;;0.10;99.90;;;;;;4914993;29;20036;-53
2024/01/27 01:26:36;;;;;;;12.82;4.85;;;0.10;99.90;;;;;;4915360;29;20032;-50
2024/01/27 01:29:02;;;;;;;15.85;5.18;;;0.10;99.90;;;;;;4915409;29;20055;-51
2024/01/27 01:31:27;;;;;;;12.65;5.57;;;0.10;99.90;;;;;;4915338;29;20107;-49
2024/01/27 01:33:53;;;;;;;11.55;4.57;;;0.10;99.90;;;;;;4915128;29;20447;-51
2024/01/27 01:36:19;;;;;;;14.55;4.93;;;0.10;99.90;;;;;;4915248;29;20372;-48
2024/01/27 01:38:45;;;;;;;12.63;5.25;;;0.10;99.90;;;;;;4915127;29;20043;-55
2024/01/27 01:41:11;;;;;;;9.32;4.85;;;0.10;99.90;;;;;;4914995;29;20128;-53
2024/01/27 01:43:37;;;;;;;8.27;4.80;;;0.30;99.90;;;;;;4914959;29;20028;-44
2024/01/27 01:46:03;;;;;;;11.27;5.00;;;0.30;99.90;;;;;;4915161;29;20050;-52
2024/01/27 01:48:29;;;;;;;24.52;5.82;;;0.40;99.90;;;;;;4915074;29;20016;-49
2024/01/27 01:50:55;;;;;;;11.40;5.53;;;0.40;99.90;;;;;;4915149;29;20024;-51
2024/01/27 01:53:22;;;;;;;16.45;5.50;;;0.20;99.90;;;;;;4914843;29;20115;-52
2024/01/27 01:55:49;;;;;;;9.73;4.70;;;0.10;99.90;;;;;;4914769;29;20028;-58
2024/01/27 01:58:16;;;;;;;17.98;5.60;;;0.00;99.90;;;;;;4914581;29;20032;-58
2024/01/27 02:00:42;;;;;;;9.13;4.82;;;0.00;99.90;;;;;;4915003;29;20024;-54
2024/01/27 02:03:12;;;;;;;9.23;4.85;;;0.00;99.90;;;;;;4914709;29;20103;-47
2024/01/27 02:05:38;;;;;;;11.70;4.72;;;0.00;99.90;;;;;;4914573;29;20032;-56
2024/01/27 02:08:04;;;;;;;18.02;5.13;;;0.10;99.90;;;;;;4914639;29;20024;-55
2024/01/27 02:10:36;;;;;;;7.40;4.00;;;0.20;99.90;;;;;;4914259;29;20103;-46
2024/01/27 02:13:03;;;;;;;13.30;5.07;;;0.20;99.90;;;;;;4914721;29;20083;-49
2024/01/27 02:15:28;;;;;;;14.05;5.53;;;0.10;99.90;;;;;;4914562;29;20111;-47
2024/01/27 02:17:54;;;;;;;12.98;5.25;;;0.00;99.90;;;;;;4914411;29;20111;-50
2024/01/27 02:20:20;;;;;;;9.05;4.30;;;-0.10;99.90;;;;;;4914497;29;20590;-44
2024/01/27 02:22:45;;;;;;;13.80;4.85;;;-0.10;99.90;;;;;;4914310;29;20030;-48
2024/01/27 02:25:11;;;;;;;12.23;4.45;;;-0.10;99.90;;;;;;4914231;29;20051;-47
2024/01/27 02:27:36;;;;;;;10.93;5.35;;;0.00;99.90;;;;;;4914089;29;20026;-48
2024/01/27 02:30:02;;;;;;;10.30;5.00;;;0.10;99.90;;;;;;4914482;29;20040;-48
2024/01/27 02:32:28;;;;;;;10.48;4.70;;;0.10;99.90;;;;;;4914339;29;20023;-49
2024/01/27 02:34:54;;;;;;;13.18;5.00;;;0.00;99.90;;;;;;4912918;29;20040;-48
2024/01/27 02:37:19;;;;;;;12.10;4.75;;;0.00;99.90;;;;;;4914157;29;20164;-47
2024/01/27 02:39:45;;;;;;;15.90;5.43;;;0.00;99.90;;;;;;4914290;29;20020;-52
2024/01/27 02:42:11;;;;;;;7.18;3.95;;;-0.10;99.90;;;;;;4914277;29;20480;-47
2024/01/27 02:44:37;;;;;;;11.35;5.13;;;-0.10;99.90;;;;;;4913846;29;20043;-51
2024/01/27 02:47:02;;;;;;;16.13;5.28;;;-0.10;99.90;;;;;;4916446;29;20020;-44
2024/01/27 02:49:28;;;;;;;8.10;4.20;;;-0.10;99.90;;;;;;4918134;29;20079;-48
2024/01/27 02:51:54;;;;;;;10.85;5.15;;;-0.10;99.90;;;;;;4917912;29;20515;-50
2024/01/27 02:54:19;;;;;;;12.73;5.50;;;-0.10;99.90;;;;;;4917880;29;20122;-47
2024/01/27 02:56:45;;;;;;;11.88;4.80;;;-0.10;99.90;;;;;;4917870;29;20024;-45
2024/01/27 02:59:12;;;;;;;7.75;3.88;;;-0.10;99.90;;;;;;4918039;29;20074;-47
2024/01/27 03:01:37;;;;;;;8.00;3.40;;;-0.10;99.90;;;;;;4917903;29;20028;-47
2024/01/27 03:04:03;;;;;;;9.38;3.97;;;-0.20;99.90;;;;;;4917735;29;20402;-48
2024/01/27 03:06:29;;;;;;;12.10;3.83;;;-0.10;99.90;;;;;;4917819;29;20031;-53
2024/01/27 03:08:55;;;;;;;12.60;3.85;;;-0.10;99.90;;;;;;4917555;29;20471;-47
2024/01/27 03:11:21;;;;;;;15.07;5.18;;;-0.10;99.90;;;;;;4910441;29;20028;-52
2024/01/27 03:13:47;;;;;;;12.38;4.13;;;-0.20;99.90;;;;;;4916589;29;20032;-48
2024/01/27 03:16:13;;;;;;;15.32;3.85;;;-0.30;99.90;;;;;;4914614;29;20036;-51
2024/01/27 03:18:39;;;;;;;17.75;4.20;;;-0.30;99.90;;;;;;4915359;29;20031;-47
2024/01/27 03:21:07;;;;;;;6.88;3.28;;;-0.30;99.90;;;;;;4920944;29;20036;-51
2024/01/27 03:23:32;;;;;;;7.80;3.15;;;-0.30;99.90;;;;;;4928812;29;20024;-45
2024/01/27 03:25:58;;;;;;;7.13;2.83;;;-0.30;99.90;;;;;;4916289;29;20048;-49
2024/01/27 03:28:23;;;;;;;5.47;2.85;;;-0.10;99.90;;;;;;4932239;29;20031;-52
2024/01/27 03:30:49;;;;;;;15.60;3.65;;;-0.10;99.90;;;;;;4925680;29;20058;-47
2024/01/27 03:33:14;;;;;;;10.15;3.53;;;-0.20;99.90;;;;;;4925231;29;20035;-52
2024/01/27 03:35:40;;;;;;;12.65;3.90;;;-0.30;99.90;;;;;;4922817;29;20083;-48
2024/01/27 03:38:06;;;;;;;10.70;3.55;;;-0.40;99.90;;;;;;4925856;29;20407;-45
2024/01/27 03:40:32;;;;;;;10.98;3.70;;;-0.40;99.90;;;;;;4926159;29;20087;-54
2024/01/27 03:42:57;;;;;;;8.65;3.03;;;-0.30;99.90;;;;;;4923824;29;20012;-51
2024/01/27 03:45:23;;;;;;;11.00;3.72;;;-0.30;99.90;;;;;;4923731;29;20519;-51
2024/01/27 03:47:49;;;;;;;7.50;3.15;;;-0.20;99.90;;;;;;4917697;29;20070;-47
2024/01/27 03:50:14;;;;;;;3.90;2.08;;;-0.20;99.90;;;;;;4918493;29;20030;-47
2024/01/27 03:52:42;;;;;;;13.38;2.95;;;-0.30;99.90;;;;;;4920209;29;20024;-46
2024/01/27 03:55:08;;;;;;;9.55;2.80;;;-0.30;99.90;;;;;;4936151;29;20031;-46
2024/01/27 03:57:33;;;;;;;9.65;3.30;;;-0.40;99.90;;;;;;4934882;29;20455;-47
2024/01/27 03:59:59;;;;;;;8.75;3.30;;;-0.50;99.90;;;;;;4933625;29;20047;-48
2024/01/27 04:02:24;;;;;;;7.13;2.72;;;-0.50;99.90;;;;;;4926393;29;20379;-45
2024/01/27 04:04:50;;;;;;;15.95;2.78;;;-0.60;99.90;;;;;;4924858;29;20387;-52
2024/01/27 04:07:16;;;;;;;6.53;2.63;;;-0.40;99.90;;;;;;4921859;29;20035;-46
2024/01/27 04:09:42;;;;;;;5.15;2.00;;;-0.50;99.90;;;;;;4925939;29;20054;-48
2024/01/27 04:12:07;;;;;;;9.57;2.60;;;-0.40;99.90;;;;;;4927195;29;20043;-52
2024/01/27 04:14:33;;;;;;;8.15;2.55;;;-0.50;99.90;;;;;;4917266;29;20178;-54
2024/01/27 04:16:59;;;;;;;7.18;2.53;;;-0.40;99.90;;;;;;4925174;29;20446;-46
2024/01/27 04:19:24;;;;;;;7.72;2.42;;;-0.30;99.90;;;;;;4921492;29;20032;-46
2024/01/27 04:21:50;;;;;;;7.85;2.53;;;-0.40;99.90;;;;;;4913431;29;20119;-48
2024/01/27 04:24:16;;;;;;;5.97;2.53;;;-0.50;99.90;;;;;;4927575;29;20082;-47
2024/01/27 04:26:41;;;;;;;8.02;2.80;;;-0.50;99.90;;;;;;4932808;29;20166;-49
2024/01/27 04:29:08;;;;;;;6.28;3.17;;;-0.50;99.90;;;;;;4929881;29;20055;-49
2024/01/27 04:31:33;;;;;;;11.88;3.42;;;-0.40;99.90;;;;;;4923801;29;20084;-48
2024/01/27 04:34:00;;;;;;;9.95;2.80;;;-0.40;99.90;;;;;;4921529;29;20091;-44
2024/01/27 04:36:29;;;;;;;8.13;3.15;;;-0.60;99.90;;;;;;4921879;29;20032;-44
2024/01/27 04:38:55;;;;;;;8.10;3.95;;;-0.70;99.90;;;;;;4926860;29;20376;-48
2024/01/27 04:41:21;;;;;;;9.10;3.92;;;-0.70;99.90;;;;;;4929984;29;20119;-53
2024/01/27 04:43:46;;;;;;;6.63;3.15;;;-0.70;99.90;;;;;;4934805;29;20019;-47
2024/01/27 04:46:12;;;;;;;13.35;3.35;;;-0.70;99.90;;;;;;4934745;29;20032;-48
2024/01/27 04:48:37;;;;;;;12.35;3.70;;;-0.80;99.90;;;;;;4934609;29;20482;-46
2024/01/27 04:51:03;;;;;;;7.93;3.88;;;-0.70;99.90;;;;;;4935029;29;20032;-48
2024/01/27 04:53:29;;;;;;;6.25;3.45;;;-0.70;99.90;;;;;;4934722;29;20364;-50
2024/01/27 04:55:54;;;;;;;16.90;3.35;;;-0.80;99.90;;;;;;4934820;29;20058;-53
2024/01/27 04:58:20;;;;;;;7.13;2.97;;;-0.80;99.90;;;;;;4934550;29;20114;-49
2024/01/27 05:00:46;;;;;;;8.13;3.00;;;-0.80;99.90;;;;;;4934330;29;20043;-52
2024/01/27 05:03:13;;;;;;;12.38;3.75;;;-0.80;99.90;;;;;;4934597;29;20067;-54
2024/01/27 05:05:42;;;;;;;6.38;2.67;;;-0.80;99.90;;;;;;4934455;29;20039;-46
2024/01/27 05:08:09;;;;;;;10.55;2.78;;;-0.70;99.90;;;;;;4934751;29;20054;-47
2024/01/27 05:10:36;;;;;;;11.70;3.17;;;-0.60;99.90;;;;;;4933877;29;20034;-46
2024/01/27 05:13:02;;;;;;;11.00;3.50;;;-0.60;99.90;;;;;;4934642;29;20037;-50
2024/01/27 05:15:27;;;;;;;8.00;2.55;;;-0.60;99.90;;;;;;4934221;29;20032;-56
2024/01/27 05:17:53;;;;;;;9.48;2.88;;;-0.50;99.90;;;;;;4934142;29;20492;-49
2024/01/27 05:20:19;;;;;;;6.70;3.10;;;-0.60;99.90;;;;;;4934385;29;20036;-51
2024/01/27 05:22:45;;;;;;;9.27;3.90;;;-0.80;99.90;;;;;;4934248;29;20475;-53
2024/01/27 05:25:11;;;;;;;10.50;3.63;;;-0.70;99.90;;;;;;4934124;29;20051;-49
2024/01/27 05:27:38;;;;;;;9.10;3.50;;;-0.70;99.90;;;;;;4934010;29;20115;-52
2024/01/27 05:30:05;;;;;;;6.75;3.15;;;-0.70;99.90;;;;;;4933929;29;20050;-46
2024/01/27 05:32:31;;;;;;;8.13;3.40;;;-0.80;99.90;;;;;;4933827;29;20020;-45
2024/01/27 05:34:57;;;;;;;8.10;3.80;;;-0.80;99.90;;;;;;4934078;29;20035;-46
2024/01/27 05:37:22;;;;;;;8.88;3.10;;;-0.80;99.90;;;;;;4934117;29;20023;-50
2024/01/27 05:39:48;;;;;;;7.57;3.40;;;-0.80;99.90;;;;;;4933750;29;20440;-52
2024/01/27 05:42:13;;;;;;;9.30;3.78;;;-0.80;99.90;;;;;;4933834;29;20087;-47
2024/01/27 05:44:40;;;;;;;8.45;3.70;;;-0.80;99.90;;;;;;4933502;29;20475;-45
2024/01/27 05:47:06;;;;;;;13.20;3.67;;;-0.90;99.90;;;;;;4933817;29;20034;-45
2024/01/27 05:49:32;;;;;;;7.18;2.85;;;-0.90;99.90;;;;;;4933805;29;20069;-47
2024/01/27 05:51:58;;;;;;;10.25;2.90;;;-0.90;99.90;;;;;;4933913;29;20130;-44
2024/01/27 05:54:24;;;;;;;9.27;3.40;;;-0.90;99.90;;;;;;4933977;29;20063;-44
2024/01/27 05:56:50;;;;;;;10.73;3.50;;;-1.00;99.90;;;;;;4933757;29;20041;-56
2024/01/27 05:59:15;;;;;;;16.48;3.75;;;-1.00;99.90;;;;;;4933572;29;20395;-48
2024/01/27 06:01:43;;;;;;;9.18;3.33;;;-1.00;99.90;;;;;;4933432;29;20063;-52
2024/01/27 06:04:09;;;;;;;8.40;4.05;;;-1.00;99.90;;;;;;4933502;29;20052;-45
2024/01/27 06:06:37;;;;;;;8.18;3.20;;;-1.10;99.90;;;;;;4933692;29;20102;-55
2024/01/27 06:09:03;;;;;;;7.55;2.38;;;-1.10;99.90;;;;;;4933632;29;20027;-47
2024/01/27 06:11:29;;;;;;;7.57;3.00;;;-1.10;99.90;;;;;;4933408;29;20106;-50
2024/01/27 06:13:55;;;;;;;9.57;3.05;;;-1.10;99.90;;;;;;4933100;29;20086;-48
2024/01/27 06:16:21;;;;;;;7.13;2.80;;;-1.10;99.90;;;;;;4933352;29;20032;-45
2024/01/27 06:18:47;;;;;;;9.52;2.63;;;-1.10;99.90;;;;;;4933693;29;20035;-50
2024/01/27 06:21:13;;;;;;;9.00;2.35;;;-1.10;99.90;;;;;;4932934;29;20028;-49
2024/01/27 06:23:39;;;;;;;7.38;2.97;;;-1.10;99.90;;;;;;4934226;29;20028;-53
2024/01/27 06:26:08;;;;;;;8.65;3.40;;;-1.00;99.90;;;;;;4933415;29;20122;-50
2024/01/27 06:28:34;;;;;;;8.60;2.10;;;-0.90;99.90;;;;;;4933734;29;20036;-50
2024/01/27 06:31:01;;;;;;;3.83;2.25;;;-0.90;99.90;;;;;;4933549;29;20036;-52
2024/01/27 06:33:26;;;;;;;11.75;3.05;;;-0.90;99.90;;;;;;4934169;29;20054;-51
2024/01/27 06:35:52;;;;;;;10.75;2.67;;;-0.90;99.90;;;;;;4931909;29;20023;-46
2024/01/27 06:38:18;;;;;;;13.23;3.55;;;-0.90;99.90;;;;;;4933335;29;20043;-52
2024/01/27 06:40:43;;;;;;;7.10;2.67;;;-0.80;99.90;;;;;;4933360;29;20031;-46
2024/01/27 06:43:12;;;;;;;6.32;2.13;;;-0.90;99.90;;;;;;4933014;29;20094;-47
2024/01/27 06:45:38;;;;;;;9.45;2.50;;;-0.90;99.90;;;;;;4932971;29;20055;-47
2024/01/27 06:48:04;;;;;;;10.32;2.70;;;-0.80;99.90;;;;;;4933078;29;20460;-46
2024/01/27 06:50:30;;;;;;;21.30;3.38;;;-0.70;99.90;;;;;;4933351;29;20032;-54
2024/01/27 06:52:55;;;;;;;7.55;2.33;;;-0.70;99.90;;;;;;4933444;29;20475;-48
2024/01/27 06:55:21;;;;;;;5.78;2.42;;;-0.60;99.90;;;;;;4934013;29;20056;-46
2024/01/27 06:57:47;;;;;;;7.00;2.15;;;-0.70;99.90;;;;;;4933754;29;20028;-47
2024/01/27 07:00:16;;;;;;;12.15;3.08;;;-0.60;99.90;;;;;;4933414;29;20040;-46
2024/01/27 07:02:42;;;;;;;5.55;2.65;;;-0.50;99.90;;;;;;4933952;29;20060;-45
2024/01/27 07:05:09;;;;;;;13.77;2.47;;;-0.40;99.90;;;;;;4933413;29;20043;-49
2024/01/27 07:07:35;;;;;;;8.73;1.67;;;-0.30;99.90;;;;;;4933206;29;20086;-45
2024/01/27 07:10:00;;;;;;;9.45;2.35;;;-0.20;99.90;;;;;;4930950;29;20399;-45
2024/01/27 07:12:26;;;;;;;5.38;1.95;;;-0.10;99.90;;;;;;4933201;29;20020;-48
2024/01/27 07:14:52;;;;;;;9.63;2.40;;;0.00;99.90;;;;;;4933095;29;20077;-52
2024/01/27 07:17:18;;;;;;;13.27;2.97;;;0.00;99.90;;;;;;4927922;29;20032;-47
2024/01/27 07:19:44;;;;;;;7.38;2.40;;;0.00;99.90;;;;;;4930589;29;20174;-52
2024/01/27 07:22:09;;;;;;;10.05;3.22;;;0.10;99.90;;;;;;4928885;29;20028;-48
2024/01/27 07:24:35;;;;;;;9.35;2.95;;;0.00;99.90;;;;;;4929979;29;20059;-54
2024/01/27 07:27:02;;;;;;;8.25;2.78;;;0.00;99.90;;;;;;4930506;29;20032;-45
2024/01/27 07:29:28;;;;;;;4.85;2.03;;;0.00;99.90;;;;;;4928408;29;20028;-45
2024/01/27 07:31:54;;;;;;;2.72;1.63;;;0.10;99.90;;;;;;4931091;29;20032;-51
2024/01/27 07:34:20;;;;;;;8.48;2.30;;;0.10;99.90;;;;;;4931656;29;20075;-50
2024/01/27 07:36:47;;;;;;;8.70;2.00;;;0.20;99.90;;;;;;4934179;29;20024;-50
2024/01/27 07:39:13;;;;;;;6.03;1.65;;;0.30;99.90;;;;;;4931707;29;20030;-52
2024/01/27 07:41:39;;;;;;;3.45;1.70;;;0.30;99.90;;;;;;4934054;29;20177;-53
2024/01/27 07:44:13;;;;;;;4.63;1.63;;;0.40;99.90;;;;;;4933624;29;20020;-50
2024/01/27 07:46:39;;;;;;;3.35;1.40;;;0.40;99.90;;;;;;4932985;29;20024;-50
2024/01/27 07:49:06;;;;;;;10.05;1.77;;;0.40;99.90;;;;;;4934029;29;20099;-52
2024/01/27 07:51:32;;;;;;;6.18;2.15;;;0.50;99.90;;;;;;4931352;29;20028;-53
2024/01/27 07:53:58;;;;;;;3.45;1.63;;;0.50;99.90;;;;;;4933747;29;20027;-55
2024/01/27 07:56:24;;;;;;;7.85;1.88;;;0.50;99.90;;;;;;4931121;29;20035;-53
2024/01/27 07:58:50;;;;;;;5.50;1.63;;;0.60;99.90;;;;;;4934083;29;20019;-52
2024/01/27 08:01:16;;;;;;;8.38;2.45;;;0.60;99.90;;;;;;4933638;29;20371;-44
2024/01/27 08:03:42;;;;;;;6.15;1.85;;;0.70;99.90;;;;;;4935991;29;20099;-45
2024/01/27 08:06:14;;;;;;;11.02;2.30;;;0.60;99.90;;;;;;4935923;29;20483;-58
2024/01/27 08:08:40;;;;;;;5.15;2.05;;;0.70;99.90;;;;;;4936015;29;20056;-44
2024/01/27 08:11:05;;;;;;;10.10;2.35;;;0.70;99.90;;;;;;4935954;29;20082;-44
2024/01/27 08:13:31;;;;;;;7.22;2.28;;;0.80;99.90;;;;;;4935830;29;20027;-50
2024/01/27 08:15:56;;;;;;;4.35;1.88;;;0.80;99.90;;;;;;4935595;29;20020;-49
2024/01/27 08:18:22;;;;;;;8.70;2.65;;;0.90;99.90;;;;;;4934329;29;20024;-55
2024/01/27 08:20:48;;;;;;;5.93;2.38;;;1.00;99.90;;;;;;4935486;29;20098;-53
2024/01/27 08:23:13;;;;;;;6.10;1.77;;;1.10;99.90;;;;;;4935399;29;20034;-54
2024/01/27 08:25:39;;;;;;;5.35;1.80;;;1.20;99.90;;;;;;4935268;29;20052;-51
2024/01/27 08:28:05;;;;;;;7.18;1.92;;;1.30;99.90;;;;;;4935627;29;20020;-48
2024/01/27 08:30:31;;;;;;;4.38;2.03;;;1.30;99.90;;;;;;4935491;29;20057;-52
2024/01/27 08:32:56;;;;;;;6.43;3.08;;;1.10;99.90;;;;;;4935274;29;20523;-49
2024/01/27 08:35:22;;;;;;;10.40;4.07;;;1.10;99.90;;;;;;4935540;29;20038;-53
2024/01/27 08:37:48;;;;;;;8.27;3.65;;;1.00;99.90;;;;;;4935020;29;20028;-48
2024/01/27 08:40:14;;;;;;;9.85;3.25;;;0.90;99.90;;;;;;4935433;29;20066;-49
2024/01/27 08:42:40;;;;;;;13.38;4.30;;;0.90;99.90;;;;;;4935262;29;20032;-52
2024/01/27 08:45:06;;;;;;;7.07;3.75;;;1.00;99.90;;;;;;4932696;29;20412;-50
2024/01/27 08:47:32;;;;;;;10.25;4.40;;;1.10;99.90;;;;;;4935191;29;20020;-50
2024/01/27 08:49:57;;;;;;;11.40;4.22;;;1.30;99.90;;;;;;4934804;29;20024;-52
2024/01/27 08:52:23;;;;;;;10.07;3.85;;;1.40;99.90;;;;;;4934727;29;20031;-51
2024/01/27 08:54:49;;;;;;;6.95;3.28;;;1.60;99.90;;;;;;4934594;29;20035;-57
2024/01/27 08:57:14;;;;;;;9.23;3.50;;;1.70;99.90;;;;;;4934911;29;20024;-56
2024/01/27 08:59:40;;;;;;;7.00;2.78;;;1.80;99.90;;;;;;4934534;29;20541;-54
2024/01/27 09:02:06;;;;;;;7.20;2.75;;;1.90;99.90;;;;;;4934646;29;20032;-54
2024/01/27 09:04:31;;;;;;;6.70;3.05;;;2.00;99.90;;;;;;4934191;29;20031;-51
2024/01/27 09:06:57;;;;;;;9.82;3.47;;;2.10;99.90;;;;;;4933899;29;20075;-50
2024/01/27 09:09:22;;;;;;;11.82;2.88;;;2.20;99.90;;;;;;4902743;29;20493;-50
2024/01/27 09:11:50;;;;;;;11.55;4.03;;;2.20;99.90;;;;;;4926599;29;20023;-49
2024/01/27 09:14:15;;;;;;;8.88;2.67;;;2.40;99.90;;;;;;4920234;29;20126;-55
2024/01/27 09:16:41;;;;;;;14.25;3.15;;;2.50;99.90;;;;;;4923323;29;20032;-57
2024/01/27 09:19:08;;;;;;;9.80;3.47;;;2.70;99.90;;;;;;4902592;29;20119;-56
2024/01/27 09:21:33;;;;;;;8.05;3.03;;;2.80;99.90;;;;;;4923216;29;20487;-47
2024/01/27 09:24:01;;;;;;;10.33;4.00;;;3.00;99.90;;;;;;4933745;29;20086;-53
2024/01/27 09:26:27;;;;;;;10.00;3.90;;;3.10;99.90;;;;;;4933927;29;20055;-56
2024/01/27 09:28:55;;;;;;;13.95;4.85;;;3.10;99.90;;;;;;4933869;29;20031;-54
2024/01/27 09:31:25;;;;;;;10.77;4.03;;;3.10;99.90;;;;;;4933450;29;20110;-49
2024/01/27 09:33:54;;;;;;;10.70;3.63;;;3.10;99.90;;;;;;4933656;29;20047;-47
2024/01/27 09:36:20;;;;;;;9.20;3.35;;;3.20;99.90;;;;;;4933351;29;20483;-55
2024/01/27 09:38:46;;;;;;;8.55;3.50;;;3.20;99.90;;;;;;4932361;29;20547;-54
2024/01/27 09:41:16;;;;;;;8.57;3.22;;;3.30;99.90;;;;;;4933588;29;20035;-54
2024/01/27 09:43:46;;;;;;;7.70;3.67;;;3.40;99.90;;;;;;4933792;29;20020;-50
2024/01/27 09:46:12;;;;;;;7.32;2.80;;;3.50;99.90;;;;;;4925905;29;20129;-47
2024/01/27 09:48:38;;;;;;;5.35;3.00;;;3.60;99.90;;;;;;4930306;29;20063;-45
2024/01/27 09:51:07;;;;;;;8.95;3.75;;;3.70;99.90;;;;;;4927171;29;20131;-50
2024/01/27 09:53:32;;;;;;;9.20;4.45;;;3.80;99.90;;;;;;4920449;29;20038;-49
2024/01/27 09:55:58;;;;;;;9.95;3.92;;;3.80;99.90;;;;;;4928515;29;20399;-48
2024/01/27 09:58:30;;;;;;;9.52;3.45;;;4.00;99.90;;;;;;4928332;29;20031;-53
2024/01/27 10:00:57;;;;;;;7.25;3.45;;;4.00;99.90;;;;;;4929698;29;20020;-51
2024/01/27 10:03:27;;;;;;;6.88;3.10;;;4.20;99.90;;;;;;4933315;29;20027;-56
2024/01/27 10:05:55;;;;;;;6.40;3.38;;;4.20;99.90;;;;;;4923106;29;20120;-49
2024/01/27 10:08:22;;;;;;;10.73;3.13;;;4.40;99.90;;;;;;4918395;29;20028;-45
2024/01/27 10:10:58;;;;;;;11.75;3.53;;;4.50;99.90;;;;;;4927092;29;20024;-52
2024/01/27 10:13:27;;;;;;;8.38;3.60;;;4.70;99.90;;;;;;4931686;29;20383;-51
2024/01/27 10:16:06;;;;;;;11.82;2.88;;;4.80;99.90;;;;;;4929543;29;20487;-47
2024/01/27 10:18:33;;;;;;;5.32;2.17;;;5.00;99.90;;;;;;4931813;29;20032;-49
2024/01/27 10:20:59;;;;;;;11.00;2.33;;;5.20;99.90;;;;;;4929722;29;20027;-51
2024/01/27 10:23:25;;;;;;;7.55;2.13;;;5.40;99.90;;;;;;4930560;29;20051;-51
2024/01/27 10:25:51;;;;;;;9.65;1.85;;;5.60;99.90;;;;;;4927651;29;20076;-46
2024/01/27 10:28:18;;;;;;;5.47;1.80;;;5.80;99.90;;;;;;4929700;29;20046;-56
2024/01/27 10:30:44;;;;;;;5.28;1.58;;;6.10;99.90;;;;;;4927743;29;20027;-49
2024/01/27 10:33:12;;;;;;;10.23;2.20;;;6.30;99.90;;;;;;4929729;29;20714;-49
2024/01/27 10:35:38;;;;;;;10.45;1.98;;;6.50;99.90;;;;;;4929225;29;20044;-45
2024/01/27 10:38:03;;;;;;;4.68;1.75;;;6.80;99.90;;;;;;4928544;29;20027;-47
2024/01/27 10:40:29;;;;;;;5.28;2.03;;;7.10;99.90;;;;;;4931489;29;20546;-52
2024/01/27 10:43:06;;;;;;;5.82;2.83;;;7.40;99.90;;;;;;4929397;29;20035;-55
2024/01/27 10:45:41;;;;;;;13.23;3.88;;;7.70;99.90;;;;;;4931215;29;20116;-49
2024/01/27 10:48:11;;;;;;;13.68;5.47;;;8.10;99.90;;;;;;4929710;29;20494;-58
2024/01/27 10:50:39;;;;;;;8.13;3.10;;;8.30;99.90;;;;;;4931337;29;20031;-54
2024/01/27 10:53:09;;;;;;;6.15;2.78;;;8.40;99.90;;;;;;4921081;29;20033;-50
2024/01/27 10:55:35;;;;;;;6.72;2.30;;;8.70;99.90;;;;;;4920174;29;20039;-52
2024/01/27 10:58:02;;;;;;;9.07;2.95;;;8.90;99.90;;;;;;4921717;29;20024;-50
2024/01/27 11:00:30;;;;;;;8.13;2.70;;;9.30;99.90;;;;;;4929756;29;20019;-50
2024/01/27 11:02:59;;;;;;;8.75;2.80;;;9.50;99.90;;;;;;4930313;29;20027;-54
2024/01/27 11:05:26;;;;;;;8.90;3.50;;;9.60;99.90;;;;;;4926469;29;20480;-52
2024/01/27 11:07:53;;;;;;;6.18;3.03;;;9.90;99.90;;;;;;4931709;29;20714;-49
2024/01/27 11:10:19;;;;;;;5.03;2.53;;;10.10;99.90;;;;;;4928313;29;20056;-49
2024/01/27 11:12:47;;;;;;;9.73;2.35;;;10.40;99.90;;;;;;4914300;29;20056;-48
2024/01/27 11:15:13;;;;;;;7.75;2.67;;;10.70;99.90;;;;;;4909793;29;20037;-51
2024/01/27 11:17:42;;;;;;;11.05;2.10;;;11.00;99.90;;;;;;4920875;29;20498;-49
2024/01/27 11:20:11;;;;;;;13.18;2.45;;;11.50;99.90;;;;;;4919898;29;20040;-48
2024/01/27 11:22:37;;;;;;;7.03;2.13;;;11.80;99.90;;;;;;4922356;29;20051;-53
2024/01/27 11:25:16;;;;;;;8.35;2.03;;;12.00;99.90;;;;;;4919612;29;20044;-48
2024/01/27 11:27:43;;;;;;;7.13;1.92;;;12.20;99.90;;;;;;4922293;29;20048;-51
2024/01/27 11:30:29;;;;;;;7.32;1.83;;;12.30;99.90;;;;;;4919056;29;20067;-45
2024/01/27 11:32:56;;;;;;;7.32;1.85;;;12.30;99.90;;;;;;4924581;29;20036;-55
2024/01/27 11:35:22;;;;;;;8.25;2.08;;;11.80;99.90;;;;;;4915115;29;20103;-48
2024/01/27 11:37:48;;;;;;;11.20;2.78;;;11.50;99.90;;;;;;4923592;29;20543;-53
2024/01/27 11:40:15;;;;;;;6.28;1.88;;;11.20;99.90;;;;;;4919483;29;20107;-53
2024/01/27 11:42:42;;;;;;;11.50;1.77;;;11.10;99.90;;;;;;4919054;29;20048;-51
2024/01/27 11:45:11;;;;;;;6.78;2.10;;;11.20;99.90;;;;;;4917164;29;20464;-48
2024/01/27 11:47:37;;;;;;;6.18;1.70;;;11.30;99.90;;;;;;4919014;29;20562;-50
2024/01/27 11:50:03;;;;;;;15.85;2.72;;;12.00;99.90;;;;;;4918887;29;20070;-47
2024/01/27 11:52:29;;;;;;;6.93;2.28;;;13.40;99.90;;;;;;4919375;29;20028;-44
2024/01/27 11:55:01;;;;;;;6.13;1.88;;;14.90;99.90;;;;;;4919523;29;20364;-49
2024/01/27 11:57:27;;;;;;;9.07;2.17;;;15.60;99.90;;;;;;4917156;29;20040;-45
2024/01/27 11:59:53;;;;;;;9.07;2.38;;;15.50;99.90;;;;;;4920629;29;20031;-46
2024/01/27 12:02:19;;;;;;;7.20;1.60;;;15.80;99.90;;;;;;4922923;29;20027;-45
2024/01/27 12:04:45;;;;;;;9.68;1.90;;;16.20;99.90;;;;;;4934558;29;20031;-45
2024/01/27 12:07:11;;;;;;;9.25;1.20;;;16.50;99.90;;;;;;4913806;29;20029;-46
2024/01/27 12:09:36;;;;;;;6.85;1.48;;;16.60;99.90;;;;;;4922190;29;20039;-47
2024/01/27 12:12:03;;;;;;;6.35;1.42;;;16.30;99.60;;;;;;4921398;29;20032;-44
2024/01/27 12:14:46;;;;;;;8.32;1.40;;;15.60;99.90;;;;;;4925196;29;20499;-45
2024/01/27 12:17:12;;;;;;;10.00;1.40;;;15.00;99.90;;;;;;4918092;29;20028;-46
2024/01/27 12:19:38;;;;;;;7.75;1.27;;;14.20;99.90;;;;;;4925122;29;20502;-50
2024/01/27 12:22:20;;;;;;;3.83;1.13;;;13.30;99.90;;;;;;4922854;29;20032;-50
2024/01/27 12:24:45;;;;;;;7.30;1.13;;;12.30;99.90;;;;;;4906830;29;20059;-51
2024/01/27 12:27:11;;;;;;;5.93;1.33;;;11.90;99.90;;;;;;4918292;29;20029;-51
2024/01/27 12:29:37;;;;;;;7.40;1.50;;;11.40;99.90;;;;;;4905803;29;20047;-49
2024/01/27 12:32:02;;;;;;;6.70;1.23;;;11.50;99.90;;;;;;4917242;29;20184;-52
2024/01/27 12:34:29;;;;;;;5.38;1.17;;;12.00;99.90;;;;;;4916934;29;20427;-48
2024/01/27 12:36:55;;;;;;;11.00;1.35;;;12.20;99.90;;;;;;4933091;29;20044;-49
2024/01/27 12:39:21;;;;;;;10.20;1.60;;;12.20;99.90;;;;;;4929979;29;20016;-45
2024/01/27 12:41:47;;;;;;;5.90;1.08;;;12.10;99.90;;;;;;4932469;29;20387;-45
2024/01/27 12:44:12;;;;;;;7.60;1.48;;;12.00;99.90;;;;;;4932154;29;20028;-53